createdAt,value
2019-05-03T00:00:27.043Z,0.00
2019-05-03T00:01:27.029Z,0.00
2019-05-03T00:02:27.025Z,0.00
2019-05-03T00:03:27.007Z,0.00
2019-05-03T00:04:27.008Z,0.00
2019-05-03T00:05:26.987Z,0.00
2019-05-03T00:06:26.982Z,0.00
2019-05-03T00:07:26.962Z,0.00
2019-05-03T00:08:26.950Z,0.00
2019-05-03T00:09:26.941Z,0.00
2019-05-03T00:10:26.935Z,0.00
2019-05-03T00:11:26.943Z,0.00
2019-05-03T00:12:26.913Z,0.00
2019-05-03T00:13:26.896Z,0.00
2019-05-03T00:14:26.887Z,0.00
2019-05-03T00:15:26.884Z,0.00
2019-05-03T00:16:26.862Z,0.00
2019-05-03T00:17:26.868Z,0.00
2019-05-03T00:18:26.844Z,0.00
2019-05-03T00:19:26.851Z,0.00
2019-05-03T00:20:26.834Z,0.00
2019-05-03T00:21:26.810Z,0.00
2019-05-03T00:22:26.801Z,0.00
2019-05-03T00:23:26.804Z,0.00
2019-05-03T00:24:26.785Z,0.00
2019-05-03T00:25:26.766Z,0.00
2019-05-03T00:26:26.763Z,0.00
2019-05-03T00:27:26.745Z,0.00
2019-05-03T00:28:26.736Z,0.00
2019-05-03T00:29:26.712Z,0.00
2019-05-03T00:30:26.709Z,0.00
2019-05-03T00:31:26.704Z,0.00
2019-05-03T00:32:26.689Z,0.00
2019-05-03T00:33:26.674Z,0.00
2019-05-03T00:34:26.669Z,0.00
2019-05-03T00:35:26.651Z,0.00
2019-05-03T00:36:26.640Z,0.00
2019-05-03T00:37:26.629Z,0.00
2019-05-03T00:38:26.620Z,0.00
2019-05-03T00:39:26.625Z,0.00
2019-05-03T00:40:26.593Z,0.00
2019-05-03T00:41:26.586Z,0.00
2019-05-03T00:42:26.577Z,0.00
2019-05-03T00:43:26.568Z,0.00
2019-05-03T00:44:26.548Z,0.00
2019-05-03T00:45:26.551Z,0.00
2019-05-03T00:46:26.543Z,0.00
2019-05-03T00:47:26.575Z,0.00
2019-05-03T00:48:26.509Z,0.00
2019-05-03T00:49:26.499Z,0.00
2019-05-03T00:50:26.485Z,0.00
2019-05-03T00:51:26.484Z,0.00
2019-05-03T00:52:26.456Z,0.00
2019-05-03T00:53:26.448Z,0.00
2019-05-03T00:54:26.442Z,0.00
2019-05-03T00:55:26.425Z,0.00
2019-05-03T00:56:26.418Z,0.00
2019-05-03T00:57:26.408Z,0.00
2019-05-03T00:58:26.403Z,0.00
2019-05-03T00:59:26.377Z,0.00
2019-05-03T01:00:26.382Z,0.00
2019-05-03T01:01:26.356Z,0.00
2019-05-03T01:02:26.477Z,0.00
2019-05-03T01:03:26.333Z,0.00
2019-05-03T01:04:26.324Z,0.00
2019-05-03T01:05:26.316Z,0.00
2019-05-03T01:06:26.312Z,0.00
2019-05-03T01:07:26.298Z,0.00
2019-05-03T01:08:26.283Z,0.00
2019-05-03T01:09:26.266Z,0.00
2019-05-03T01:10:26.267Z,0.00
2019-05-03T01:11:26.260Z,0.00
2019-05-03T01:12:26.234Z,0.00
2019-05-03T01:13:26.231Z,0.00
2019-05-03T01:14:26.214Z,0.00
2019-05-03T01:15:26.197Z,0.00
2019-05-03T01:16:26.194Z,0.00
2019-05-03T01:17:26.184Z,0.00
2019-05-03T01:18:26.167Z,0.00
2019-05-03T01:19:26.171Z,0.00
2019-05-03T01:20:26.146Z,0.00
2019-05-03T01:21:26.142Z,0.00
2019-05-03T01:22:26.130Z,0.00
2019-05-03T01:23:26.125Z,0.00
2019-05-03T01:24:26.110Z,0.00
2019-05-03T01:25:32.241Z,0.00
2019-05-03T01:26:27.079Z,0.00
2019-05-03T01:27:26.065Z,0.00
2019-05-03T01:28:26.062Z,0.00
2019-05-03T01:29:26.062Z,0.00
2019-05-03T01:30:26.036Z,0.00
2019-05-03T01:31:26.025Z,0.00
2019-05-03T01:32:26.017Z,0.00
2019-05-03T01:33:26.007Z,0.00
2019-05-03T01:34:25.997Z,0.00
2019-05-03T01:35:25.975Z,0.00
2019-05-03T01:36:25.966Z,0.00
2019-05-03T01:37:25.981Z,0.00
2019-05-03T01:38:25.951Z,0.00
2019-05-03T01:39:25.937Z,0.00
2019-05-03T01:40:25.935Z,0.00
2019-05-03T01:41:25.913Z,0.00
2019-05-03T01:42:25.903Z,0.00
2019-05-03T01:43:25.887Z,0.00
2019-05-03T01:44:25.881Z,0.00
2019-05-03T01:45:25.872Z,0.00
2019-05-03T01:46:25.861Z,0.00
2019-05-03T01:47:25.855Z,0.00
2019-05-03T01:48:25.827Z,0.00
2019-05-03T01:49:25.826Z,0.00
2019-05-03T01:50:25.812Z,0.00
2019-05-03T01:51:25.823Z,0.00
2019-05-03T01:52:25.792Z,0.00
2019-05-03T01:53:25.780Z,0.00
2019-05-03T01:54:25.776Z,0.00
2019-05-03T01:55:25.751Z,0.00
2019-05-03T01:56:25.754Z,0.00
2019-05-03T01:57:25.735Z,0.00
2019-05-03T01:58:25.730Z,0.00
2019-05-03T01:59:25.714Z,0.00
2019-05-03T02:00:25.716Z,0.00
2019-05-03T02:01:25.689Z,0.00
2019-05-03T02:02:25.686Z,0.00
2019-05-03T02:03:25.679Z,0.00
2019-05-03T02:04:25.663Z,0.00
2019-05-03T02:05:25.659Z,0.00
2019-05-03T02:06:25.631Z,0.00
2019-05-03T02:07:25.639Z,0.00
2019-05-03T02:08:25.609Z,0.00
2019-05-03T02:09:25.640Z,0.00
2019-05-03T02:10:25.596Z,0.00
2019-05-03T02:11:25.586Z,0.00
2019-05-03T02:12:25.570Z,0.00
2019-05-03T02:13:25.579Z,0.00
2019-05-03T02:14:25.546Z,0.00
2019-05-03T02:15:25.534Z,0.00
2019-05-03T02:16:25.546Z,0.00
2019-05-03T02:17:25.517Z,0.00
2019-05-03T02:18:25.505Z,0.00
2019-05-03T02:19:25.491Z,0.00
2019-05-03T02:20:25.486Z,0.00
2019-05-03T02:21:25.473Z,0.00
2019-05-03T02:22:25.458Z,0.00
2019-05-03T02:23:25.443Z,0.00
2019-05-03T02:24:25.449Z,0.00
2019-05-03T02:25:25.425Z,0.00
2019-05-03T02:26:25.413Z,0.00
2019-05-03T02:27:25.401Z,0.00
2019-05-03T02:28:25.401Z,0.00
2019-05-03T02:29:25.379Z,0.00
2019-05-03T02:30:25.388Z,0.00
2019-05-03T02:31:25.362Z,0.00
2019-05-03T02:32:25.348Z,0.00
2019-05-03T02:33:25.346Z,0.00
2019-05-03T02:34:25.332Z,0.00
2019-05-03T02:35:25.326Z,0.00
2019-05-03T02:36:25.334Z,0.00
2019-05-03T02:37:25.294Z,0.00
2019-05-03T02:38:25.286Z,0.00
2019-05-03T02:39:25.269Z,0.00
2019-05-03T02:40:25.257Z,0.00
2019-05-03T02:41:25.248Z,0.00
2019-05-03T02:42:26.451Z,0.00
2019-05-03T02:43:26.210Z,0.00
2019-05-03T02:44:26.627Z,0.00
2019-05-03T02:45:25.942Z,0.00
2019-05-03T02:46:25.496Z,0.00
2019-05-03T02:47:26.560Z,0.00
2019-05-03T02:48:25.651Z,0.00
2019-05-03T02:49:25.785Z,0.00
2019-05-03T02:50:26.013Z,0.00
2019-05-03T02:51:25.975Z,0.00
2019-05-03T02:52:25.640Z,0.00
2019-05-03T02:53:25.838Z,0.00
2019-05-03T02:54:26.976Z,0.00
2019-05-03T02:55:26.048Z,0.00
2019-05-03T02:56:26.044Z,0.00
2019-05-03T02:57:25.852Z,0.00
2019-05-03T02:58:25.443Z,0.00
2019-05-03T02:59:26.349Z,0.00
2019-05-03T03:00:25.477Z,0.00
2019-05-03T03:01:26.356Z,0.00
2019-05-03T03:02:26.365Z,0.00
2019-05-03T03:03:25.586Z,0.00
2019-05-03T03:04:25.967Z,0.00
2019-05-03T03:05:25.399Z,0.00
2019-05-03T03:06:26.802Z,0.00
2019-05-03T03:07:25.854Z,0.00
2019-05-03T03:08:25.242Z,0.00
2019-05-03T03:09:26.043Z,0.00
2019-05-03T03:10:26.461Z,4.00
2019-05-03T03:11:26.141Z,4.00
2019-05-03T03:12:25.802Z,0.00
2019-05-03T03:13:25.441Z,4.00
2019-05-03T03:14:25.631Z,0.00
2019-05-03T03:15:25.652Z,4.00
2019-05-03T03:16:25.246Z,4.00
2019-05-03T03:17:25.457Z,4.00
2019-05-03T03:18:25.539Z,4.00
2019-05-03T03:19:26.169Z,4.00
2019-05-03T03:20:25.347Z,4.00
2019-05-03T03:21:26.058Z,8.00
2019-05-03T03:22:25.946Z,4.00
2019-05-03T03:23:26.239Z,8.00
2019-05-03T03:24:25.872Z,4.00
2019-05-03T03:25:25.880Z,8.00
2019-05-03T03:26:34.437Z,8.00
2019-05-03T03:27:25.981Z,8.00
2019-05-03T03:28:25.335Z,12.00
2019-05-03T03:29:25.478Z,12.00
2019-05-03T03:30:29.266Z,12.00
2019-05-03T03:31:28.144Z,12.00
2019-05-03T03:32:29.118Z,16.00
2019-05-03T03:33:28.085Z,16.00
2019-05-03T03:34:28.006Z,16.00
2019-05-03T03:35:29.225Z,16.00
2019-05-03T03:36:43.616Z,20.00
2019-05-03T03:37:26.106Z,20.00
2019-05-03T03:38:26.063Z,20.00
2019-05-03T03:39:26.119Z,24.00
2019-05-03T03:40:25.447Z,28.00
2019-05-03T03:41:25.010Z,28.00
2019-05-03T03:42:25.163Z,28.00
2019-05-03T03:43:25.945Z,32.00
2019-05-03T03:44:25.734Z,32.00
2019-05-03T03:45:25.381Z,32.00
2019-05-03T03:46:25.120Z,36.00
2019-05-03T03:47:27.314Z,36.00
2019-05-03T03:48:26.577Z,36.00
2019-05-03T03:49:26.191Z,40.00
2019-05-03T03:50:25.880Z,40.00
2019-05-03T03:51:26.344Z,40.00
2019-05-03T03:52:25.521Z,44.00
2019-05-03T03:53:26.360Z,48.00
2019-05-03T03:54:26.009Z,48.00
2019-05-03T03:55:26.453Z,52.00
2019-05-03T03:56:25.555Z,52.00
2019-05-03T03:57:25.309Z,60.00
2019-05-03T03:58:27.079Z,64.00
2019-05-03T03:59:26.692Z,64.00
2019-05-03T04:00:25.837Z,72.00
2019-05-03T04:01:26.626Z,72.00
2019-05-03T04:02:26.545Z,72.00
2019-05-03T04:03:26.012Z,80.00
2019-05-03T04:04:26.183Z,88.00
2019-05-03T04:05:25.374Z,92.00
2019-05-03T04:06:26.670Z,100.00
2019-05-03T04:07:26.240Z,104.00
2019-05-03T04:08:25.211Z,108.00
2019-05-03T04:09:25.572Z,116.00
2019-05-03T04:10:26.114Z,120.00
2019-05-03T04:11:25.958Z,128.00
2019-05-03T04:12:26.492Z,128.00
2019-05-03T04:13:25.501Z,136.00
2019-05-03T04:14:25.402Z,140.00
2019-05-03T04:15:26.112Z,136.00
2019-05-03T04:16:25.922Z,140.00
2019-05-03T04:17:26.108Z,148.00
2019-05-03T04:18:25.544Z,152.00
2019-05-03T04:19:25.130Z,156.00
2019-05-03T04:20:25.633Z,160.00
2019-05-03T04:21:25.492Z,172.00
2019-05-03T04:22:25.366Z,176.00
2019-05-03T04:23:26.323Z,180.00
2019-05-03T04:24:25.889Z,188.00
2019-05-03T04:25:26.225Z,196.00
2019-05-03T04:26:29.469Z,204.00
2019-05-03T04:27:27.516Z,204.00
2019-05-03T04:28:25.551Z,204.00
2019-05-03T04:29:25.397Z,204.00
2019-05-03T04:30:25.694Z,204.00
2019-05-03T04:31:26.170Z,212.00
2019-05-03T04:32:28.119Z,220.00
2019-05-03T04:33:26.626Z,220.00
2019-05-03T04:34:26.145Z,220.00
2019-05-03T04:35:26.521Z,216.00
2019-05-03T04:36:26.293Z,212.00
2019-05-03T04:37:26.289Z,216.00
2019-05-03T04:38:25.684Z,224.00
2019-05-03T04:39:25.637Z,256.00
2019-05-03T04:40:25.997Z,280.00
2019-05-03T04:41:26.765Z,308.00
2019-05-03T04:42:25.394Z,324.00
2019-05-03T04:43:26.508Z,344.00
2019-05-03T04:44:26.019Z,344.00
2019-05-03T04:45:25.559Z,324.00
2019-05-03T04:46:25.891Z,328.00
2019-05-03T04:47:26.207Z,344.00
2019-05-03T04:48:25.319Z,348.00
2019-05-03T04:49:26.195Z,352.00
2019-05-03T04:50:25.524Z,344.00
2019-05-03T04:51:25.954Z,328.00
2019-05-03T04:52:25.930Z,324.00
2019-05-03T04:53:25.883Z,336.00
2019-05-03T04:54:25.210Z,332.00
2019-05-03T04:55:26.309Z,332.00
2019-05-03T04:56:25.906Z,352.00
2019-05-03T04:57:36.646Z,348.00
2019-05-03T04:58:25.851Z,340.00
2019-05-03T04:59:25.510Z,344.00
2019-05-03T05:00:25.735Z,336.00
2019-05-03T05:01:25.949Z,344.00
2019-05-03T05:02:26.292Z,356.00
2019-05-03T05:03:23.652Z,364.00
2019-05-03T05:04:25.393Z,368.00
2019-05-03T05:05:26.164Z,384.00
2019-05-03T05:06:25.807Z,392.00
2019-05-03T05:07:26.043Z,404.00
2019-05-03T05:08:25.315Z,416.00
2019-05-03T05:09:25.804Z,420.00
2019-05-03T05:10:26.050Z,424.00
2019-05-03T05:11:26.094Z,396.00
2019-05-03T05:12:25.167Z,328.00
2019-05-03T05:13:25.023Z,292.00
2019-05-03T05:14:25.678Z,268.00
2019-05-03T05:15:26.023Z,240.00
2019-05-03T05:16:25.167Z,236.00
2019-05-03T05:17:26.094Z,256.00
2019-05-03T05:18:26.166Z,296.00
2019-05-03T05:19:25.316Z,312.00
2019-05-03T05:20:24.806Z,316.00
2019-05-03T05:21:25.244Z,312.00
2019-05-03T05:22:24.699Z,296.00
2019-05-03T05:23:25.124Z,304.00
2019-05-03T05:24:25.398Z,308.00
2019-05-03T05:25:25.104Z,328.00
2019-05-03T05:26:24.851Z,352.00
2019-05-03T05:27:25.413Z,388.00
2019-05-03T05:28:25.005Z,400.00
2019-05-03T05:29:25.245Z,404.00
2019-05-03T05:30:25.138Z,412.00
2019-05-03T05:31:25.324Z,424.00
2019-05-03T05:32:24.739Z,432.00
2019-05-03T05:33:25.228Z,436.00
2019-05-03T05:34:24.589Z,424.00
2019-05-03T05:35:24.822Z,388.00
2019-05-03T05:36:24.388Z,432.00
2019-05-03T05:37:24.984Z,416.00
2019-05-03T05:38:25.321Z,416.00
2019-05-03T05:39:24.456Z,484.00
2019-05-03T05:40:24.567Z,504.00
2019-05-03T05:41:24.480Z,504.00
2019-05-03T05:42:24.946Z,484.00
2019-05-03T05:43:25.353Z,480.00
2019-05-03T05:44:24.745Z,464.00
2019-05-03T05:45:24.558Z,484.00
2019-05-03T05:46:24.804Z,448.00
2019-05-03T05:47:25.306Z,404.00
2019-05-03T05:48:24.595Z,392.00
2019-05-03T05:49:23.141Z,400.00
2019-05-03T05:50:25.236Z,448.00
2019-05-03T05:51:24.858Z,488.00
2019-05-03T05:52:24.540Z,508.00
2019-05-03T05:53:23.096Z,512.00
2019-05-03T05:54:24.606Z,512.00
2019-05-03T05:55:25.153Z,524.00
2019-05-03T05:56:24.962Z,552.00
2019-05-03T05:57:23.053Z,592.00
2019-05-03T05:58:25.384Z,572.00
2019-05-03T05:59:24.770Z,592.00
2019-05-03T06:00:23.020Z,596.00
2019-05-03T06:01:24.870Z,628.00
2019-05-03T06:02:23.000Z,696.00
2019-05-03T06:03:22.985Z,636.00
2019-05-03T06:04:24.600Z,624.00
2019-05-03T06:05:25.040Z,776.00
2019-05-03T06:06:24.392Z,584.00
2019-05-03T06:07:24.723Z,464.00
2019-05-03T06:08:24.982Z,660.00
2019-05-03T06:09:22.927Z,652.00
2019-05-03T06:10:24.734Z,664.00
2019-05-03T06:11:22.898Z,488.00
2019-05-03T06:12:22.910Z,572.00
2019-05-03T06:13:22.870Z,772.00
2019-05-03T06:14:24.516Z,692.00
2019-05-03T06:15:25.002Z,496.00
2019-05-03T06:16:24.542Z,792.00
2019-05-03T06:17:24.517Z,1208.00
2019-05-03T06:18:24.914Z,924.00
2019-05-03T06:19:22.805Z,980.00
2019-05-03T06:20:24.534Z,1064.00
2019-05-03T06:21:24.954Z,1212.00
2019-05-03T06:22:22.769Z,932.00
2019-05-03T06:23:24.673Z,784.00
2019-05-03T06:24:24.788Z,1172.00
2019-05-03T06:25:26.187Z,580.00
2019-05-03T06:26:22.726Z,648.00
2019-05-03T06:27:24.468Z,1172.00
2019-05-03T06:28:25.057Z,1228.00
2019-05-03T06:29:24.663Z,1272.00
2019-05-03T06:30:24.725Z,1168.00
2019-05-03T06:31:22.854Z,880.00
2019-05-03T06:32:22.661Z,1024.00
2019-05-03T06:33:24.500Z,1376.00
2019-05-03T06:34:22.640Z,1000.00
2019-05-03T06:35:24.342Z,632.00
2019-05-03T06:36:24.306Z,624.00
2019-05-03T06:37:22.610Z,1220.00
2019-05-03T06:38:24.276Z,996.00
2019-05-03T06:39:24.743Z,836.00
2019-05-03T06:40:22.573Z,1136.00
2019-05-03T06:41:22.565Z,1192.00
2019-05-03T06:42:22.998Z,800.00
2019-05-03T06:43:24.279Z,700.00
2019-05-03T06:44:24.798Z,1272.00
2019-05-03T06:45:25.111Z,1376.00
2019-05-03T06:46:23.486Z,1656.00
2019-05-03T06:47:25.342Z,1416.00
2019-05-03T06:48:26.986Z,1384.00
2019-05-03T06:49:25.364Z,1636.00
2019-05-03T06:50:27.574Z,1356.00
2019-05-03T06:51:24.865Z,1048.00
2019-05-03T06:52:25.482Z,1040.00
2019-05-03T06:53:25.289Z,668.00
2019-05-03T06:54:26.835Z,1516.00
2019-05-03T06:55:24.751Z,1396.00
2019-05-03T06:56:25.035Z,1644.00
2019-05-03T06:57:25.213Z,4260.00
2019-05-03T06:58:31.228Z,1772.00
2019-05-03T06:59:24.984Z,884.00
2019-05-03T07:00:22.350Z,1708.00
2019-05-03T07:01:22.343Z,3832.00
2019-05-03T07:02:22.325Z,1420.00
2019-05-03T07:03:22.317Z,1620.00
2019-05-03T07:04:24.414Z,1796.00
2019-05-03T07:05:22.297Z,1040.00
2019-05-03T07:06:33.497Z,852.00
2019-05-03T07:07:26.060Z,912.00
2019-05-03T07:08:22.255Z,1848.00
2019-05-03T07:09:22.250Z,1636.00
2019-05-03T07:10:22.237Z,4068.00
2019-05-03T07:11:22.220Z,8484.00
2019-05-03T07:12:22.222Z,3832.00
2019-05-03T07:13:22.202Z,1416.00
2019-05-03T07:14:22.192Z,952.00
2019-05-03T07:15:22.205Z,1008.00
2019-05-03T07:16:22.177Z,1016.00
2019-05-03T07:17:22.153Z,776.00
2019-05-03T07:18:22.156Z,1112.00
2019-05-03T07:19:22.136Z,1372.00
2019-05-03T07:20:22.121Z,2560.00
2019-05-03T07:21:22.120Z,1216.00
2019-05-03T07:22:22.127Z,824.00
2019-05-03T07:23:22.183Z,836.00
2019-05-03T07:24:22.075Z,2392.00
2019-05-03T07:25:22.065Z,2856.00
2019-05-03T07:26:22.063Z,4472.00
2019-05-03T07:27:22.052Z,2708.00
2019-05-03T07:28:22.035Z,4760.00
2019-05-03T07:29:22.018Z,1964.00
2019-05-03T07:30:22.015Z,1260.00
2019-05-03T07:31:22.002Z,1312.00
2019-05-03T07:32:21.990Z,6232.00
2019-05-03T07:33:21.987Z,816.00
2019-05-03T07:34:21.964Z,1036.00
2019-05-03T07:35:21.959Z,1224.00
2019-05-03T07:36:25.077Z,1248.00
2019-05-03T07:37:24.573Z,1736.00
2019-05-03T07:38:21.926Z,804.00
2019-05-03T07:39:21.923Z,1828.00
2019-05-03T07:40:21.897Z,1932.00
2019-05-03T07:41:24.457Z,1896.00
2019-05-03T07:42:22.880Z,2008.00
2019-05-03T07:43:21.872Z,1788.00
2019-05-03T07:44:21.857Z,1268.00
2019-05-03T07:45:21.837Z,1168.00
2019-05-03T07:46:21.831Z,1816.00
2019-05-03T07:47:21.834Z,1768.00
2019-05-03T07:48:21.809Z,1448.00
2019-05-03T07:49:21.798Z,1448.00
2019-05-03T07:50:21.804Z,1268.00
2019-05-03T07:51:21.790Z,1112.00
2019-05-03T07:52:21.763Z,1116.00
2019-05-03T07:53:21.756Z,1012.00
2019-05-03T07:54:21.740Z,952.00
2019-05-03T07:55:21.744Z,1460.00
2019-05-03T07:56:21.720Z,1956.00
2019-05-03T07:57:28.866Z,1968.00
2019-05-03T07:59:06.230Z,1200.00
2019-05-03T08:00:04.981Z,1844.00
2019-05-03T08:01:07.081Z,1324.00
2019-05-03T08:02:05.668Z,1792.00
2019-05-03T08:03:05.014Z,1776.00
2019-05-03T08:04:05.280Z,1620.00
2019-05-03T08:05:05.102Z,2112.00
2019-05-03T08:06:04.805Z,2296.00
2019-05-03T08:07:04.449Z,2464.00
2019-05-03T08:08:04.794Z,2680.00
2019-05-03T08:09:04.843Z,2496.00
2019-05-03T08:10:05.390Z,2264.00
2019-05-03T08:11:05.137Z,948.00
2019-05-03T08:12:05.066Z,792.00
2019-05-03T08:13:04.667Z,884.00
2019-05-03T08:14:04.995Z,1324.00
2019-05-03T08:15:05.262Z,2384.00
2019-05-03T08:16:03.156Z,1160.00
2019-05-03T08:17:05.001Z,912.00
2019-05-03T08:18:04.813Z,2356.00
2019-05-03T08:19:04.914Z,2704.00
2019-05-03T08:20:05.150Z,2548.00
2019-05-03T08:21:05.157Z,2140.00
2019-05-03T08:22:04.781Z,1892.00
2019-05-03T08:23:05.126Z,1456.00
2019-05-03T08:24:04.585Z,1216.00
2019-05-03T08:25:03.070Z,1344.00
2019-05-03T08:26:05.520Z,6892.00
2019-05-03T08:27:05.116Z,2652.00
2019-05-03T08:28:05.157Z,5664.00
2019-05-03T08:29:15.321Z,2100.00
2019-05-03T08:30:04.680Z,13292.00
2019-05-03T08:31:04.767Z,1136.00
2019-05-03T08:32:04.918Z,800.00
2019-05-03T08:33:02.997Z,624.00
2019-05-03T08:34:04.824Z,732.00
2019-05-03T08:35:04.704Z,616.00
2019-05-03T08:36:04.852Z,736.00
2019-05-03T08:37:05.006Z,2272.00
2019-05-03T08:38:04.827Z,5400.00
2019-05-03T08:39:05.356Z,18528.00
2019-05-03T08:40:02.910Z,20032.00
2019-05-03T08:41:02.889Z,16088.00
2019-05-03T08:42:04.818Z,3684.00
2019-05-03T08:43:05.024Z,6048.00
2019-05-03T08:44:02.852Z,24640.00
2019-05-03T08:45:04.555Z,27488.00
2019-05-03T08:46:04.597Z,24544.00
2019-05-03T08:47:02.831Z,1488.00
2019-05-03T08:48:02.823Z,1648.00
2019-05-03T08:49:05.023Z,1252.00
2019-05-03T08:50:02.787Z,1876.00
2019-05-03T08:51:04.529Z,1944.00
2019-05-03T08:52:02.763Z,1476.00
2019-05-03T08:53:04.924Z,3612.00
2019-05-03T08:54:04.653Z,3264.00
2019-05-03T08:55:02.724Z,3652.00
2019-05-03T08:56:02.713Z,2204.00
2019-05-03T08:57:02.711Z,1812.00
2019-05-03T08:58:02.702Z,1152.00
2019-05-03T08:59:04.544Z,3120.00
2019-05-03T09:00:02.670Z,1448.00
2019-05-03T09:01:02.652Z,8544.00
2019-05-03T09:02:03.524Z,7276.00
2019-05-03T09:03:05.232Z,2896.00
2019-05-03T09:04:02.636Z,1812.00
2019-05-03T09:05:02.616Z,1576.00
2019-05-03T09:06:04.512Z,1268.00
2019-05-03T09:07:02.590Z,1172.00
2019-05-03T09:08:02.586Z,1068.00
2019-05-03T09:09:04.554Z,896.00
2019-05-03T09:10:02.596Z,872.00
2019-05-03T09:11:02.544Z,808.00
2019-05-03T09:12:04.576Z,972.00
2019-05-03T09:13:05.564Z,940.00
2019-05-03T09:14:04.432Z,1064.00
2019-05-03T09:15:02.494Z,1292.00
2019-05-03T09:16:02.502Z,944.00
2019-05-03T09:17:04.774Z,824.00
2019-05-03T09:18:04.645Z,704.00
2019-05-03T09:19:02.525Z,2376.00
2019-05-03T09:20:02.448Z,2720.00
2019-05-03T09:21:02.432Z,2976.00
2019-05-03T09:22:02.478Z,3008.00
2019-05-03T09:23:02.413Z,3384.00
2019-05-03T09:24:04.557Z,1596.00
2019-05-03T09:25:02.388Z,1388.00
2019-05-03T09:26:04.509Z,1172.00
2019-05-03T09:27:02.399Z,1012.00
2019-05-03T09:28:04.577Z,892.00
2019-05-03T09:29:02.355Z,800.00
2019-05-03T09:30:02.329Z,852.00
2019-05-03T09:31:04.537Z,1004.00
2019-05-03T09:32:02.317Z,948.00
2019-05-03T09:33:02.295Z,932.00
2019-05-03T09:34:02.288Z,960.00
2019-05-03T09:35:02.272Z,1076.00
2019-05-03T09:36:02.287Z,1240.00
2019-05-03T09:37:02.270Z,1112.00
2019-05-03T09:38:02.251Z,1064.00
2019-05-03T09:39:02.233Z,1036.00
2019-05-03T09:40:02.223Z,864.00
2019-05-03T09:41:02.218Z,2356.00
2019-05-03T09:42:02.203Z,2388.00
2019-05-03T09:43:04.334Z,2308.00
2019-05-03T09:44:02.210Z,2368.00
2019-05-03T09:45:02.162Z,2548.00
2019-05-03T09:46:02.151Z,3084.00
2019-05-03T09:47:02.145Z,3396.00
2019-05-03T09:48:02.131Z,2800.00
2019-05-03T09:49:12.595Z,1988.00
2019-05-03T09:50:04.809Z,1772.00
2019-05-03T09:51:02.112Z,1376.00
2019-05-03T09:52:02.346Z,1364.00
2019-05-03T09:53:02.099Z,1220.00
2019-05-03T09:54:02.072Z,1056.00
2019-05-03T09:55:02.087Z,984.00
2019-05-03T09:56:02.041Z,756.00
2019-05-03T09:57:02.032Z,828.00
2019-05-03T09:58:02.028Z,920.00
2019-05-03T09:59:02.008Z,1316.00
2019-05-03T10:00:02.025Z,1724.00
2019-05-03T10:01:03.828Z,1312.00
2019-05-03T10:02:01.985Z,2300.00
2019-05-03T10:03:01.965Z,2160.00
2019-05-03T10:04:01.952Z,2136.00
2019-05-03T10:05:01.965Z,2152.00
2019-05-03T10:06:01.970Z,2232.00
2019-05-03T10:07:01.918Z,2396.00
2019-05-03T10:08:01.905Z,2112.00
2019-05-03T10:09:01.898Z,1380.00
2019-05-03T10:10:01.907Z,2748.00
2019-05-03T10:11:01.885Z,2648.00
2019-05-03T10:12:01.879Z,2540.00
2019-05-03T10:13:01.865Z,2604.00
2019-05-03T10:14:01.840Z,2592.00
2019-05-03T10:15:01.882Z,2576.00
2019-05-03T10:16:01.824Z,2524.00
2019-05-03T10:17:01.822Z,2952.00
2019-05-03T10:18:08.007Z,3708.00
2019-05-03T10:19:02.778Z,3872.00
2019-05-03T10:20:01.773Z,2040.00
2019-05-03T10:21:03.088Z,1576.00
2019-05-03T10:22:01.747Z,1284.00
2019-05-03T10:23:01.745Z,1136.00
2019-05-03T10:24:01.723Z,1120.00
2019-05-03T10:25:01.741Z,1172.00
2019-05-03T10:26:01.709Z,1364.00
2019-05-03T10:27:01.695Z,1480.00
2019-05-03T10:28:01.692Z,1356.00
2019-05-03T10:29:01.667Z,1164.00
2019-05-03T10:30:10.486Z,1156.00
2019-05-03T10:31:07.346Z,1028.00
2019-05-03T10:32:02.633Z,1068.00
2019-05-03T10:33:01.624Z,1144.00
2019-05-03T10:34:01.638Z,1576.00
2019-05-03T10:35:01.617Z,3008.00
2019-05-03T10:36:01.603Z,2424.00
2019-05-03T10:37:01.581Z,3248.00
2019-05-03T10:38:01.566Z,3080.00
2019-05-03T10:39:01.553Z,1592.00
2019-05-03T10:40:01.549Z,1376.00
2019-05-03T10:41:01.547Z,1396.00
2019-05-03T10:42:01.520Z,1348.00
2019-05-03T10:43:01.513Z,1496.00
2019-05-03T10:44:01.501Z,1568.00
2019-05-03T10:45:01.509Z,1648.00
2019-05-03T10:46:01.475Z,1796.00
2019-05-03T10:47:01.473Z,3596.00
2019-05-03T10:48:01.458Z,7648.00
2019-05-03T10:49:01.441Z,12316.00
2019-05-03T10:50:01.436Z,14720.00
2019-05-03T10:51:01.434Z,4664.00
2019-05-03T10:52:01.413Z,1508.00
2019-05-03T10:53:01.400Z,1336.00
2019-05-03T10:54:01.386Z,1388.00
2019-05-03T10:55:01.379Z,1300.00
2019-05-03T10:56:01.369Z,1016.00
2019-05-03T10:57:01.364Z,988.00
2019-05-03T10:58:01.337Z,916.00
2019-05-03T10:59:01.327Z,944.00
2019-05-03T11:00:01.322Z,1120.00
2019-05-03T11:01:01.309Z,2020.00
2019-05-03T11:02:01.294Z,21056.00
2019-05-03T11:03:01.287Z,22464.00
2019-05-03T11:04:01.268Z,17888.00
2019-05-03T11:05:01.262Z,13916.00
2019-05-03T11:06:01.254Z,17312.00
2019-05-03T11:07:01.241Z,2416.00
2019-05-03T11:08:01.268Z,1272.00
2019-05-03T11:09:01.218Z,1168.00
2019-05-03T11:10:01.202Z,1072.00
2019-05-03T11:11:01.196Z,1040.00
2019-05-03T11:12:01.192Z,964.00
2019-05-03T11:13:01.181Z,960.00
2019-05-03T11:14:01.175Z,984.00
2019-05-03T11:15:01.149Z,964.00
2019-05-03T11:16:01.137Z,1016.00
2019-05-03T11:17:01.131Z,1144.00
2019-05-03T11:18:01.119Z,1264.00
2019-05-03T11:19:01.106Z,3076.00
2019-05-03T11:20:01.095Z,13384.00
2019-05-03T11:21:01.078Z,13508.00
2019-05-03T11:22:01.070Z,13760.00
2019-05-03T11:23:01.069Z,14816.00
2019-05-03T11:24:01.057Z,14208.00
2019-05-03T11:25:01.046Z,12580.00
2019-05-03T11:26:01.026Z,10000.00
2019-05-03T11:27:01.018Z,8216.00
2019-05-03T11:28:01.004Z,7656.00
2019-05-03T11:29:01.005Z,7092.00
2019-05-03T11:30:00.986Z,5456.00
2019-05-03T11:31:02.382Z,2380.00
2019-05-03T11:32:00.968Z,1192.00
2019-05-03T11:33:00.953Z,868.00
2019-05-03T11:34:00.934Z,756.00
2019-05-03T11:35:00.942Z,660.00
2019-05-03T11:36:00.931Z,632.00
2019-05-03T11:37:00.901Z,624.00
2019-05-03T11:38:00.895Z,648.00
2019-05-03T11:39:00.878Z,672.00
2019-05-03T11:40:00.881Z,704.00
2019-05-03T11:41:00.869Z,764.00
2019-05-03T11:42:00.850Z,812.00
2019-05-03T11:43:00.838Z,852.00
2019-05-03T11:44:00.824Z,984.00
2019-05-03T11:45:00.816Z,1052.00
2019-05-03T11:46:00.802Z,1016.00
2019-05-03T11:47:00.811Z,1028.00
2019-05-03T11:48:00.789Z,1152.00
2019-05-03T11:49:00.772Z,1296.00
2019-05-03T11:50:00.763Z,1340.00
2019-05-03T11:51:00.749Z,1392.00
2019-05-03T11:52:00.746Z,1364.00
2019-05-03T11:53:00.739Z,1524.00
2019-05-03T11:54:00.717Z,1980.00
2019-05-03T11:55:00.715Z,2392.00
2019-05-03T11:56:00.691Z,2236.00
2019-05-03T11:57:00.689Z,2532.00
2019-05-03T11:58:00.685Z,2960.00
2019-05-03T11:59:00.666Z,3468.00
2019-05-03T12:00:00.655Z,3032.00
2019-05-03T12:01:11.835Z,1928.00
2019-05-03T12:02:01.618Z,1700.00
2019-05-03T12:03:00.620Z,1684.00
2019-05-03T12:04:00.609Z,1612.00
2019-05-03T12:05:00.600Z,1228.00
2019-05-03T12:06:00.583Z,1268.00
2019-05-03T12:07:00.592Z,1200.00
2019-05-03T12:08:00.567Z,1148.00
2019-05-03T12:09:00.543Z,1088.00
2019-05-03T12:10:00.593Z,1300.00
2019-05-03T12:11:01.628Z,1532.00
2019-05-03T12:12:00.514Z,1656.00
2019-05-03T12:13:00.503Z,1768.00
2019-05-03T12:14:04.159Z,1892.00
2019-05-03T12:15:00.484Z,2204.00
2019-05-03T12:16:00.634Z,3272.00
2019-05-03T12:17:16.581Z,3716.00
2019-05-03T12:18:01.911Z,3612.00
2019-05-03T12:19:13.263Z,3420.00
2019-05-03T12:20:03.007Z,3428.00
2019-05-03T12:21:01.758Z,3324.00
2019-05-03T12:22:00.913Z,3372.00
2019-05-03T12:23:01.175Z,3244.00
2019-05-03T12:24:01.100Z,3440.00
2019-05-03T12:25:00.991Z,3336.00
2019-05-03T12:26:00.954Z,3592.00
2019-05-03T12:27:00.344Z,3456.00
2019-05-03T12:28:00.351Z,3500.00
2019-05-03T12:29:00.327Z,3532.00
2019-05-03T12:30:00.317Z,2400.00
2019-05-03T12:31:00.303Z,1712.00
2019-05-03T12:32:00.294Z,3344.00
2019-05-03T12:33:00.281Z,3464.00